createdAt,value
2018-02-09T00:00:14.931Z,-4.70
2018-02-09T00:02:46.634Z,-4.70
2018-02-09T00:05:15.355Z,-4.70
2018-02-09T00:07:43.055Z,-4.50
2018-02-09T00:10:14.177Z,-4.50
2018-02-09T00:12:42.969Z,-4.40
2018-02-09T00:15:10.597Z,-4.40
2018-02-09T00:17:38.180Z,-4.40
2018-02-09T00:20:05.757Z,-4.40
2018-02-09T00:22:44.891Z,-4.40
2018-02-09T00:25:12.457Z,-4.50
2018-02-09T00:27:40.053Z,-4.40
2018-02-09T00:30:07.616Z,-4.40
2018-02-09T00:32:35.195Z,-4.30
2018-02-09T00:35:02.805Z,-4.40
2018-02-09T00:37:30.357Z,-4.30
2018-02-09T00:39:57.912Z,-4.40
2018-02-09T00:42:25.477Z,-4.50
2018-02-09T00:44:53.203Z,-4.50
2018-02-09T00:47:20.943Z,-4.50
2018-02-09T00:49:48.572Z,-4.60
2018-02-09T00:52:16.125Z,-4.70
2018-02-09T00:54:43.673Z,-4.50
2018-02-09T00:57:11.239Z,-4.60
2018-02-09T00:59:38.796Z,-4.60
2018-02-09T01:02:06.320Z,-4.60
2018-02-09T01:04:33.866Z,-4.60
2018-02-09T01:07:01.413Z,-4.70
2018-02-09T01:09:28.972Z,-4.70
2018-02-09T01:11:56.549Z,-4.70
2018-02-09T01:14:24.148Z,-4.70
2018-02-09T01:16:52.023Z,-4.70
2018-02-09T01:19:20.573Z,-4.70
2018-02-09T01:21:48.206Z,-4.60
2018-02-09T01:24:15.745Z,-4.60
2018-02-09T01:26:43.301Z,-4.60
2018-02-09T01:29:10.844Z,-4.60
2018-02-09T01:31:38.376Z,-4.60
2018-02-09T01:34:05.946Z,-4.50
2018-02-09T01:36:33.595Z,-4.60
2018-02-09T01:39:01.247Z,-4.60
2018-02-09T01:41:28.784Z,-4.60
2018-02-09T01:43:56.321Z,-4.50
2018-02-09T01:46:23.877Z,-4.50
2018-02-09T01:48:51.425Z,-4.50
2018-02-09T01:51:19.053Z,-4.50
2018-02-09T01:53:46.644Z,-4.50
2018-02-09T01:56:14.391Z,-4.50
2018-02-09T01:58:41.950Z,-4.60
2018-02-09T02:01:09.498Z,-4.60
2018-02-09T02:03:37.035Z,-4.60
2018-02-09T02:06:04.599Z,-4.70
2018-02-09T02:08:32.195Z,-4.70
2018-02-09T02:10:59.835Z,-4.80
2018-02-09T02:13:27.436Z,-4.70
2018-02-09T02:15:55.030Z,-4.70
2018-02-09T02:18:22.651Z,-4.70
2018-02-09T02:20:50.702Z,-4.70
2018-02-09T02:23:18.409Z,-4.70
2018-02-09T02:25:46.042Z,-4.70
2018-02-09T02:28:13.585Z,-4.60
2018-02-09T02:30:41.174Z,-4.60
2018-02-09T02:33:08.804Z,-4.60
2018-02-09T02:35:36.433Z,-4.70
2018-02-09T02:38:04.045Z,-4.50
2018-02-09T02:40:31.614Z,-4.70
2018-02-09T02:42:59.173Z,-4.60
2018-02-09T02:45:27.046Z,-4.80
2018-02-09T02:47:54.853Z,-4.90
2018-02-09T02:50:22.552Z,-4.80
2018-02-09T02:52:50.170Z,-4.90
2018-02-09T02:55:17.779Z,-4.80
2018-02-09T02:57:45.539Z,-4.80
2018-02-09T03:00:13.179Z,-4.90
2018-02-09T03:02:40.705Z,-4.90
2018-02-09T03:05:08.252Z,-4.80
2018-02-09T03:07:35.809Z,-4.80
2018-02-09T03:10:03.364Z,-4.90
2018-02-09T03:12:31.645Z,-5.00
2018-02-09T03:14:59.168Z,-5.00
2018-02-09T03:17:26.735Z,-5.10
2018-02-09T03:19:54.260Z,-5.20
2018-02-09T03:22:21.804Z,-5.20
2018-02-09T03:24:49.352Z,-5.20
2018-02-09T03:27:16.901Z,-5.30
2018-02-09T03:29:44.491Z,-5.20
2018-02-09T03:32:12.273Z,-5.10
2018-02-09T03:34:40.599Z,-5.20
2018-02-09T03:37:08.187Z,-5.20
2018-02-09T03:39:35.808Z,-5.20
2018-02-09T03:42:03.389Z,-5.20
2018-02-09T03:44:30.993Z,-5.30
2018-02-09T03:46:58.553Z,-5.30
2018-02-09T03:49:26.110Z,-5.20
2018-02-09T03:51:53.682Z,-5.20
2018-02-09T03:54:21.262Z,-5.20
2018-02-09T03:56:48.816Z,-5.20
2018-02-09T03:59:16.354Z,-5.20
2018-02-09T04:01:43.908Z,-5.30
2018-02-09T04:04:11.457Z,-5.30
2018-02-09T04:06:39.003Z,-5.30
2018-02-09T04:09:06.529Z,-5.20
2018-02-09T04:11:34.093Z,-5.30
2018-02-09T04:14:01.622Z,-5.30
2018-02-09T04:16:29.186Z,-5.20
2018-02-09T04:18:56.737Z,-5.20
2018-02-09T04:21:24.312Z,-5.20
2018-02-09T04:23:51.864Z,-5.30
2018-02-09T04:26:19.424Z,-5.20
2018-02-09T04:28:46.957Z,-5.20
2018-02-09T04:31:14.549Z,-5.30
2018-02-09T04:33:42.113Z,-5.30
2018-02-09T04:36:09.648Z,-5.30
2018-02-09T04:38:37.196Z,-5.30
2018-02-09T04:41:04.758Z,-5.30
2018-02-09T04:43:32.319Z,-5.30
2018-02-09T04:45:59.945Z,-5.30
2018-02-09T04:48:27.564Z,-5.30
2018-02-09T04:50:55.093Z,-5.40
2018-02-09T04:53:22.636Z,-5.30
2018-02-09T04:55:50.168Z,-5.30
2018-02-09T04:58:17.734Z,-5.40
2018-02-09T05:00:45.309Z,-5.40
2018-02-09T05:03:12.851Z,-5.40
2018-02-09T05:05:40.384Z,-5.40
2018-02-09T05:08:07.940Z,-5.40
2018-02-09T05:10:35.500Z,-5.30
2018-02-09T05:13:03.082Z,-5.30
2018-02-09T05:15:31.582Z,-5.30
2018-02-09T05:17:59.117Z,-5.40
2018-02-09T05:20:27.021Z,-5.40
2018-02-09T05:22:54.560Z,-5.40
2018-02-09T05:25:22.101Z,-5.40
2018-02-09T05:27:49.673Z,-5.50
2018-02-09T05:30:17.224Z,-5.40
2018-02-09T05:32:44.776Z,-5.40
2018-02-09T05:35:12.311Z,-5.40
2018-02-09T05:37:39.866Z,-5.30
2018-02-09T05:40:07.430Z,-5.30
2018-02-09T05:42:35.003Z,-5.30
2018-02-09T05:45:02.672Z,-5.20
2018-02-09T05:47:31.265Z,-5.20
2018-02-09T05:49:58.804Z,-5.20
2018-02-09T05:52:26.382Z,-5.10
2018-02-09T05:54:53.904Z,-5.10
2018-02-09T05:57:21.501Z,-5.00
2018-02-09T05:59:49.076Z,-4.90
2018-02-09T06:02:16.686Z,-4.90
2018-02-09T06:04:44.314Z,-4.80
2018-02-09T06:07:11.852Z,-4.80
2018-02-09T06:09:39.605Z,-4.80
2018-02-09T06:12:07.186Z,-4.80
2018-02-09T06:14:34.783Z,-4.70
2018-02-09T06:17:02.366Z,-4.70
2018-02-09T06:19:30.008Z,-8.50
2018-02-09T06:21:57.579Z,-4.70
2018-02-09T06:24:31.312Z,-2.00
2018-02-09T06:26:58.899Z,-4.70
2018-02-09T06:29:26.460Z,-4.20
2018-02-09T06:31:54.017Z,-1.70
2018-02-09T06:34:21.581Z,-4.90
2018-02-09T06:36:49.109Z,-5.00
2018-02-09T06:39:16.660Z,-5.00
2018-02-09T06:41:44.302Z,-5.10
2018-02-09T06:44:11.885Z,-5.00
2018-02-09T06:46:39.424Z,-5.00
2018-02-09T06:49:06.966Z,-5.00
2018-02-09T06:51:34.504Z,-5.00
2018-02-09T06:54:02.089Z,-5.00
2018-02-09T06:56:29.632Z,-5.00
2018-02-09T06:58:57.194Z,-5.00
2018-02-09T07:01:24.733Z,-5.00
2018-02-09T07:03:52.285Z,-5.00
2018-02-09T07:06:19.800Z,-4.90
2018-02-09T07:08:47.361Z,-4.80
2018-02-09T07:11:14.889Z,-4.70
2018-02-09T07:13:42.461Z,-4.50
2018-02-09T07:16:10.012Z,-4.50
2018-02-09T07:18:37.576Z,-4.50
2018-02-09T07:21:05.137Z,-4.30
2018-02-09T07:23:32.682Z,-4.20
2018-02-09T07:26:00.303Z,-4.10
2018-02-09T07:28:27.846Z,-4.20
2018-02-09T07:30:55.395Z,-4.10
2018-02-09T07:33:23.020Z,-4.10
2018-02-09T07:35:50.921Z,-4.10
2018-02-09T07:38:18.545Z,-4.10
2018-02-09T07:40:46.106Z,-4.10
2018-02-09T07:43:13.755Z,-4.10
2018-02-09T07:45:41.268Z,-4.00
2018-02-09T07:48:09.587Z,-3.90
2018-02-09T07:50:37.148Z,-3.90
2018-02-09T07:53:04.696Z,-3.80
2018-02-09T07:55:32.257Z,-3.80
2018-02-09T07:57:59.794Z,-3.70
2018-02-09T08:00:27.368Z,-3.50
2018-02-09T08:02:54.886Z,-3.30
2018-02-09T08:05:22.417Z,-3.10
2018-02-09T08:07:49.968Z,-3.00
2018-02-09T08:10:17.528Z,-2.90
2018-02-09T08:12:45.104Z,-2.70
2018-02-09T08:15:12.646Z,-2.50
2018-02-09T08:17:40.177Z,-2.40
2018-02-09T08:20:07.737Z,-2.40
2018-02-09T08:22:35.261Z,-2.20
2018-02-09T08:25:02.833Z,-2.00
2018-02-09T08:27:30.403Z,-2.00
2018-02-09T08:29:57.960Z,-1.90
2018-02-09T08:32:25.517Z,1.30
2018-02-09T08:34:53.076Z,-1.70
2018-02-09T08:37:20.668Z,-1.40
2018-02-09T08:39:48.295Z,-1.10
2018-02-09T08:42:15.851Z,-1.10
2018-02-09T08:44:43.424Z,-1.20
2018-02-09T08:47:10.993Z,-1.40
2018-02-09T08:49:38.552Z,-1.40
2018-02-09T08:52:06.118Z,-1.40
2018-02-09T08:54:33.689Z,-1.10
2018-02-09T08:57:01.225Z,-1.00
2018-02-09T08:59:28.848Z,-0.70
2018-02-09T09:01:56.437Z,-0.50
2018-02-09T09:04:24.040Z,-0.30
2018-02-09T09:06:51.628Z,-0.40
2018-02-09T09:09:19.213Z,-0.30
2018-02-09T09:11:47.647Z,-0.40
2018-02-09T09:14:15.245Z,-0.40
2018-02-09T09:16:42.829Z,-0.50
2018-02-09T09:19:10.376Z,-0.60
2018-02-09T09:21:38.075Z,-0.40
2018-02-09T09:24:07.308Z,0.00
2018-02-09T09:26:34.933Z,3.40
2018-02-09T09:29:05.425Z,0.60
2018-02-09T09:31:33.227Z,0.80
2018-02-09T09:34:00.842Z,0.40
2018-02-09T09:36:29.975Z,0.80
2018-02-09T09:38:57.556Z,1.00
2018-02-09T09:41:25.173Z,0.40
2018-02-09T09:43:52.806Z,0.50
2018-02-09T09:46:20.477Z,0.90
2018-02-09T09:48:48.222Z,0.90
2018-02-09T09:51:16.023Z,0.90
2018-02-09T09:53:47.415Z,1.10
2018-02-09T09:56:15.105Z,1.00
2018-02-09T09:58:42.895Z,1.20
2018-02-09T10:01:16.972Z,1.50
2018-02-09T10:03:44.665Z,1.40
2018-02-09T10:06:12.481Z,1.10
2018-02-09T10:08:40.212Z,1.40
2018-02-09T10:11:07.962Z,1.20
2018-02-09T10:13:35.707Z,0.50
2018-02-09T10:16:05.189Z,0.80
2018-02-09T10:18:32.948Z,1.10
2018-02-09T10:21:01.648Z,1.10
2018-02-09T10:23:29.331Z,1.00
2018-02-09T10:25:56.911Z,0.80
2018-02-09T10:28:25.254Z,0.20
2018-02-09T10:30:52.973Z,0.60
2018-02-09T10:33:20.993Z,0.90
2018-02-09T10:35:49.649Z,1.00
2018-02-09T10:38:17.319Z,0.80
2018-02-09T10:40:45.068Z,1.20
2018-02-09T10:43:12.782Z,1.10
2018-02-09T10:45:40.443Z,1.50
2018-02-09T10:48:08.029Z,1.30
2018-02-09T10:50:35.638Z,1.10
2018-02-09T10:53:03.246Z,-0.20
2018-02-09T10:55:31.637Z,1.10
2018-02-09T10:57:59.263Z,4.60
2018-02-09T11:00:32.491Z,1.10
2018-02-09T11:03:00.156Z,0.80
2018-02-09T11:05:27.757Z,0.80
2018-02-09T11:07:55.362Z,0.80
2018-02-09T11:10:28.641Z,1.00
2018-02-09T11:12:57.622Z,2.30
2018-02-09T11:15:25.401Z,2.30
2018-02-09T11:17:52.964Z,2.10
2018-02-09T11:20:20.526Z,2.90
2018-02-09T11:22:48.170Z,2.90
2018-02-09T11:25:15.723Z,2.40
2018-02-09T11:27:43.340Z,2.10
2018-02-09T11:30:10.859Z,2.30
2018-02-09T11:32:38.390Z,2.60
2018-02-09T11:35:05.922Z,3.40
2018-02-09T11:37:33.472Z,3.10
2018-02-09T11:40:01.016Z,2.80
2018-02-09T11:42:28.555Z,2.90
2018-02-09T11:44:56.085Z,1.90
2018-02-09T11:47:23.624Z,1.80
2018-02-09T11:49:51.159Z,2.40
2018-02-09T11:52:18.697Z,2.90
2018-02-09T11:54:46.213Z,2.60
2018-02-09T11:57:13.791Z,2.70
2018-02-09T11:59:41.321Z,3.10
2018-02-09T12:02:08.907Z,3.10
2018-02-09T12:04:36.482Z,3.20
2018-02-09T12:07:04.042Z,3.10
2018-02-09T12:09:31.644Z,3.20
2018-02-09T12:11:59.181Z,3.20
2018-02-09T12:14:26.728Z,3.30
2018-02-09T12:16:54.334Z,2.80
2018-02-09T12:19:21.882Z,3.10
2018-02-09T12:21:49.471Z,3.00
2018-02-09T12:24:16.992Z,3.40
2018-02-09T12:26:44.518Z,3.40
2018-02-09T12:29:12.045Z,3.20
2018-02-09T12:31:39.582Z,3.00
2018-02-09T12:34:07.147Z,2.90
2018-02-09T12:36:34.696Z,3.40
2018-02-09T12:39:02.245Z,2.60
2018-02-09T12:41:29.801Z,2.40
2018-02-09T12:43:57.388Z,3.00
2018-02-09T12:46:24.884Z,2.90
2018-02-09T12:48:52.480Z,3.40
2018-02-09T12:51:20.038Z,3.70
2018-02-09T12:53:47.588Z,3.90
2018-02-09T12:56:15.116Z,4.70
2018-02-09T12:58:42.663Z,5.50
2018-02-09T13:01:10.182Z,6.00
2018-02-09T13:03:37.752Z,6.60
2018-02-09T13:06:05.321Z,7.30
2018-02-09T13:08:32.909Z,6.80
2018-02-09T13:11:00.506Z,5.80
2018-02-09T13:13:28.056Z,5.20
2018-02-09T13:15:55.597Z,4.70
2018-02-09T13:18:34.923Z,4.50
2018-02-09T13:21:02.442Z,3.90
2018-02-09T13:23:41.560Z,3.40
2018-02-09T13:26:09.076Z,3.30
2018-02-09T13:28:48.579Z,3.20
2018-02-09T13:31:16.114Z,3.50
2018-02-09T13:33:43.658Z,3.20
2018-02-09T13:36:14.777Z,2.50
2018-02-09T13:38:46.290Z,2.40
2018-02-09T13:41:16.109Z,3.20
2018-02-09T13:43:43.633Z,2.30
2018-02-09T13:46:11.140Z,2.70
2018-02-09T13:48:38.706Z,2.60
2018-02-09T13:51:06.255Z,2.60
2018-02-09T13:53:33.796Z,2.30
2018-02-09T13:56:02.049Z,2.40
2018-02-09T13:58:29.593Z,2.30
2018-02-09T14:00:57.109Z,2.40
2018-02-09T14:03:25.652Z,2.60
2018-02-09T14:05:53.258Z,2.40
2018-02-09T14:08:20.824Z,2.40
2018-02-09T14:10:48.367Z,2.60
2018-02-09T14:13:15.905Z,3.30
2018-02-09T14:15:43.420Z,3.20
2018-02-09T14:18:10.954Z,2.80
2018-02-09T14:20:38.576Z,3.60
2018-02-09T14:23:06.138Z,3.90
2018-02-09T14:25:33.677Z,3.70
2018-02-09T14:28:01.208Z,3.30
2018-02-09T14:30:28.740Z,3.50
2018-02-09T14:32:56.272Z,3.60
2018-02-09T14:35:27.468Z,4.10
2018-02-09T14:38:00.846Z,4.40
2018-02-09T14:40:29.154Z,5.20
2018-02-09T14:42:56.730Z,5.20
2018-02-09T14:45:24.305Z,4.60
2018-02-09T14:47:51.869Z,4.10
2018-02-09T14:50:19.437Z,3.50
2018-02-09T14:52:46.994Z,3.30
2018-02-09T14:55:14.636Z,3.10
2018-02-09T14:57:42.310Z,3.50
2018-02-09T15:00:09.841Z,3.30
2018-02-09T15:02:37.369Z,3.10
2018-02-09T15:05:04.976Z,3.40
2018-02-09T15:07:32.514Z,3.50
2018-02-09T15:10:00.073Z,3.20
2018-02-09T15:12:27.749Z,2.70
2018-02-09T15:14:55.309Z,2.50
2018-02-09T15:17:23.661Z,2.40
2018-02-09T15:19:51.230Z,2.40
2018-02-09T15:22:18.775Z,2.60
2018-02-09T15:24:46.361Z,2.60
2018-02-09T15:27:13.917Z,2.60
2018-02-09T15:29:41.473Z,2.40
2018-02-09T15:32:09.002Z,2.00
2018-02-09T15:34:36.527Z,1.80
2018-02-09T15:37:04.083Z,0.80
2018-02-09T15:39:31.695Z,1.80
2018-02-09T15:41:59.221Z,1.70
2018-02-09T15:44:26.776Z,1.60
2018-02-09T15:46:54.293Z,1.50
2018-02-09T15:49:21.825Z,1.30
2018-02-09T15:51:49.386Z,1.40
2018-02-09T15:54:16.945Z,0.80
2018-02-09T15:56:44.481Z,1.40
2018-02-09T15:59:12.008Z,1.10
2018-02-09T16:01:39.561Z,1.10
2018-02-09T16:04:07.102Z,1.00
2018-02-09T16:06:34.658Z,0.90
2018-02-09T16:09:02.213Z,0.90
2018-02-09T16:11:29.762Z,0.80
2018-02-09T16:13:57.298Z,0.70
2018-02-09T16:16:24.868Z,0.70
2018-02-09T16:18:52.388Z,0.60
2018-02-09T16:21:19.969Z,0.60
2018-02-09T16:23:47.539Z,0.50
2018-02-09T16:26:15.100Z,-1.30
2018-02-09T16:28:42.642Z,0.50
2018-02-09T16:31:10.201Z,0.30
2018-02-09T16:33:37.896Z,0.30
2018-02-09T16:36:05.477Z,0.20
2018-02-09T16:38:33.017Z,0.10
2018-02-09T16:41:00.677Z,0.10
2018-02-09T16:43:28.260Z,0.00
2018-02-09T16:45:55.815Z,0.00
2018-02-09T16:48:23.341Z,0.00
2018-02-09T16:50:50.905Z,-0.10
2018-02-09T16:53:18.470Z,-0.10
2018-02-09T16:55:46.028Z,-0.20
2018-02-09T16:58:13.592Z,-0.20
2018-02-09T17:00:41.140Z,-0.30
2018-02-09T17:03:08.733Z,-0.40
2018-02-09T17:05:37.011Z,-0.40
2018-02-09T17:08:04.579Z,-0.40
2018-02-09T17:10:32.224Z,-0.40
2018-02-09T17:12:59.745Z,-0.30
2018-02-09T17:15:27.361Z,-0.40
2018-02-09T17:17:54.874Z,-0.50
2018-02-09T17:20:22.419Z,-0.40
2018-02-09T17:22:50.097Z,-0.40
2018-02-09T17:25:17.671Z,-0.30
2018-02-09T17:27:45.229Z,-0.20
2018-02-09T17:30:12.752Z,-0.20
2018-02-09T17:32:40.321Z,-0.20
2018-02-09T17:35:07.881Z,-0.20
2018-02-09T17:37:35.429Z,-0.20
2018-02-09T17:40:02.966Z,-0.10
2018-02-09T17:42:30.506Z,0.00
2018-02-09T17:44:58.043Z,0.00
2018-02-09T17:47:25.580Z,0.20
2018-02-09T17:49:53.096Z,0.20
2018-02-09T17:52:20.690Z,0.20
2018-02-09T17:54:48.263Z,0.20
2018-02-09T17:57:15.809Z,0.30
2018-02-09T17:59:43.365Z,0.30
2018-02-09T18:02:10.941Z,0.30
2018-02-09T18:04:38.537Z,0.30
2018-02-09T18:07:06.063Z,0.20
2018-02-09T18:09:33.613Z,0.40
2018-02-09T18:12:01.265Z,0.40
2018-02-09T18:14:28.785Z,0.40
2018-02-09T18:16:56.314Z,0.50
2018-02-09T18:19:23.849Z,0.50
2018-02-09T18:21:51.397Z,0.60
2018-02-09T18:24:19.790Z,0.60
2018-02-09T18:26:47.345Z,0.50
2018-02-09T18:29:15.461Z,0.60
2018-02-09T18:31:42.973Z,0.70
2018-02-09T18:34:10.540Z,0.70
2018-02-09T18:36:38.097Z,0.70
2018-02-09T18:39:05.678Z,0.80
2018-02-09T18:41:33.204Z,0.80
2018-02-09T18:44:00.795Z,0.70
2018-02-09T18:46:28.362Z,0.70
2018-02-09T18:48:55.958Z,0.80
2018-02-09T18:51:23.511Z,0.80
2018-02-09T18:53:51.061Z,0.70
2018-02-09T18:56:18.693Z,0.70
2018-02-09T18:58:46.263Z,0.70
2018-02-09T19:01:13.774Z,0.70
2018-02-09T19:03:41.320Z,0.80
2018-02-09T19:06:08.873Z,0.90
2018-02-09T19:08:36.425Z,0.90
2018-02-09T19:11:04.033Z,0.90
2018-02-09T19:13:31.584Z,0.90
2018-02-09T19:15:59.100Z,0.90
2018-02-09T19:18:26.669Z,0.90
2018-02-09T19:20:54.991Z,0.90
2018-02-09T19:23:22.536Z,0.90
2018-02-09T19:25:50.158Z,0.80
2018-02-09T19:28:17.709Z,0.90
2018-02-09T19:30:45.262Z,1.00
2018-02-09T19:33:12.856Z,0.80
2018-02-09T19:35:40.390Z,0.90
2018-02-09T19:38:08.002Z,0.90
2018-02-09T19:40:35.526Z,0.90
2018-02-09T19:43:03.083Z,0.90
2018-02-09T19:45:30.672Z,0.90
2018-02-09T19:47:58.252Z,0.90
2018-02-09T19:50:25.831Z,0.80
2018-02-09T19:52:53.397Z,0.90
2018-02-09T19:55:20.941Z,0.80
2018-02-09T19:57:49.288Z,0.90
2018-02-09T20:00:16.836Z,0.80
2018-02-09T20:02:44.354Z,0.80
2018-02-09T20:05:11.872Z,0.90
2018-02-09T20:07:39.439Z,0.90
2018-02-09T20:10:06.966Z,0.90
2018-02-09T20:12:34.485Z,0.80
2018-02-09T20:15:02.122Z,0.80
2018-02-09T20:17:29.720Z,0.80
2018-02-09T20:19:57.992Z,0.80
2018-02-09T20:22:25.569Z,0.80
2018-02-09T20:24:53.101Z,0.80
2018-02-09T20:27:20.661Z,0.80
2018-02-09T20:29:48.228Z,0.80
2018-02-09T20:32:15.784Z,0.90
2018-02-09T20:34:43.358Z,0.90
2018-02-09T20:37:10.920Z,0.90
2018-02-09T20:39:38.528Z,0.90
2018-02-09T20:42:06.085Z,0.90
2018-02-09T20:44:33.628Z,3.20
2018-02-09T20:47:01.165Z,0.90
2018-02-09T20:49:28.777Z,0.90
2018-02-09T20:51:56.297Z,0.90
2018-02-09T20:54:23.871Z,0.90
2018-02-09T20:56:51.397Z,0.80
2018-02-09T20:59:18.966Z,0.90
2018-02-09T21:01:46.568Z,0.90
2018-02-09T21:04:14.128Z,0.90
2018-02-09T21:06:41.686Z,1.00
2018-02-09T21:09:09.891Z,1.00
2018-02-09T21:11:37.418Z,1.00
2018-02-09T21:14:04.969Z,1.00
2018-02-09T21:16:32.501Z,1.00
2018-02-09T21:19:00.509Z,1.00
2018-02-09T21:21:28.145Z,0.90
2018-02-09T21:23:55.714Z,1.00
2018-02-09T21:26:23.253Z,1.00
2018-02-09T21:28:50.808Z,1.00
2018-02-09T21:31:18.343Z,0.90
2018-02-09T21:33:46.677Z,1.00
2018-02-09T21:36:14.204Z,1.00
2018-02-09T21:38:41.793Z,1.00
2018-02-09T21:41:09.325Z,1.00
2018-02-09T21:43:36.863Z,1.00
2018-02-09T21:46:04.444Z,1.00
2018-02-09T21:48:32.037Z,0.90
2018-02-09T21:50:59.599Z,1.00
2018-02-09T21:53:27.119Z,1.00
2018-02-09T21:55:54.674Z,0.00
2018-02-09T21:58:22.248Z,1.00
2018-02-09T22:00:49.817Z,1.00
2018-02-09T22:03:17.364Z,1.10
2018-02-09T22:05:44.905Z,1.00
2018-02-09T22:08:12.476Z,1.00
2018-02-09T22:10:40.037Z,1.10
2018-02-09T22:13:07.576Z,1.00
2018-02-09T22:15:35.141Z,1.00
2018-02-09T22:18:02.704Z,1.00
2018-02-09T22:20:30.289Z,1.00
2018-02-09T22:22:57.827Z,1.00
2018-02-09T22:25:25.379Z,1.00
2018-02-09T22:27:52.902Z,0.90
2018-02-09T22:30:20.490Z,0.90
2018-02-09T22:32:48.041Z,1.00
2018-02-09T22:35:15.592Z,1.00
2018-02-09T22:37:43.198Z,1.10
2018-02-09T22:40:10.769Z,1.10
2018-02-09T22:42:38.336Z,1.00
2018-02-09T22:45:05.904Z,1.00
2018-02-09T22:47:33.439Z,1.10
2018-02-09T22:50:00.974Z,1.10
2018-02-09T22:52:28.549Z,1.10
2018-02-09T22:54:56.096Z,1.10
2018-02-09T22:57:23.630Z,1.20
2018-02-09T22:59:51.158Z,1.10
2018-02-09T23:02:18.695Z,1.20
2018-02-09T23:04:46.243Z,1.10
2018-02-09T23:07:13.805Z,1.10
2018-02-09T23:09:41.328Z,1.10
2018-02-09T23:12:08.893Z,1.10
2018-02-09T23:14:36.427Z,1.20
2018-02-09T23:17:04.740Z,1.20
2018-02-09T23:19:32.281Z,1.20
2018-02-09T23:21:59.844Z,1.20
2018-02-09T23:24:27.382Z,1.20
2018-02-09T23:26:54.922Z,1.20
2018-02-09T23:29:22.476Z,1.30
2018-02-09T23:31:50.085Z,1.20
2018-02-09T23:34:17.624Z,1.20
2018-02-09T23:36:45.997Z,1.20
2018-02-09T23:39:13.524Z,1.30
2018-02-09T23:41:41.054Z,1.30
2018-02-09T23:44:08.598Z,1.20
2018-02-09T23:46:36.132Z,1.30
2018-02-09T23:49:03.700Z,1.30
2018-02-09T23:51:31.251Z,1.20
2018-02-09T23:53:58.806Z,1.30
2018-02-09T23:56:26.376Z,1.20
2018-02-09T23:58:53.944Z,1.40
